Time;durP1;ratioP1;P1;durP2;ratioP2;P2;SDS_P1;SDS_P2;PMS_P1;PMS_P2;Temp;Humidity;BMP_temperature;BMP_pressure;BME280_temperature;BME280_humidity;BME280_pressure;Samples;Min_cycle;Max_cycle;Signal;HPM_P1;HPM_P2
2022/06/24 00:00:41;;;;;;;8.38;2.20;;;;;;;17.98;100.00;95090.25;5052737;28;20135;-80
2022/06/24 00:03:16;;;;;;;5.18;1.90;;;;;;;17.80;100.00;95089.59;5044923;28;20396;-80
2022/06/24 00:05:42;;;;;;;8.48;3.35;;;;;;;17.87;100.00;95084.56;5045597;28;20045;-80
2022/06/24 00:08:07;;;;;;;4.75;2.15;;;;;;;17.92;100.00;95083.59;5043753;28;20041;-79
2022/06/24 00:10:35;;;;;;;6.13;2.50;;;;;;;17.94;100.00;95079.50;5045417;28;20036;-80
2022/06/24 00:13:03;;;;;;;8.60;2.33;;;;;;;17.98;100.00;95080.38;5045393;28;20044;-80
2022/06/24 00:15:31;;;;;;;4.47;2.15;;;;;;;17.96;100.00;95093.25;5049666;28;20045;-80
2022/06/24 00:17:57;;;;;;;7.05;2.10;;;;;;;17.98;100.00;95100.91;5049963;28;20041;-80
2022/06/24 00:20:23;;;;;;;8.18;1.92;;;;;;;17.83;100.00;95100.38;5038023;28;20045;-80
2022/06/24 00:22:51;;;;;;;6.65;2.28;;;;;;;17.87;100.00;95107.72;5051867;28;20112;-79
2022/06/24 00:25:19;;;;;;;5.65;2.00;;;;;;;17.76;100.00;95105.44;5045246;28;20044;-80
2022/06/24 00:28:23;;;;;;;4.97;1.70;;;;;;;17.71;100.00;95102.19;5035419;28;20115;-79
2022/06/24 00:30:53;;;;;;;5.32;1.80;;;;;;;17.66;100.00;95100.50;4997370;28;20419;-79
2022/06/24 00:33:23;;;;;;;5.93;1.63;;;;;;;17.64;100.00;95102.69;5040552;28;20399;-79
2022/06/24 00:35:52;;;;;;;5.43;1.80;;;;;;;17.57;100.00;95113.09;5041531;28;20091;-79
2022/06/24 00:38:22;;;;;;;4.22;1.83;;;;;;;17.54;100.00;95109.22;5039144;28;20064;-80
2022/06/24 00:40:52;;;;;;;8.85;2.08;;;;;;;17.46;100.00;95108.16;5047384;28;20037;-79
2022/06/24 00:43:23;;;;;;;7.55;2.58;;;;;;;17.41;100.00;95100.38;5048065;28;20045;-79
2022/06/24 00:45:53;;;;;;;7.47;1.90;;;;;;;17.46;100.00;95100.16;5045787;28;20490;-79
2022/06/24 00:48:22;;;;;;;7.05;2.30;;;;;;;17.52;100.00;95100.00;5045492;28;20048;-80
2022/06/24 00:50:48;;;;;;;6.63;1.98;;;;;;;17.55;100.00;95109.97;5036712;28;20406;-80
2022/06/24 00:53:14;;;;;;;12.20;1.70;;;;;;;17.54;100.00;95108.41;5046008;28;20422;-80
2022/06/24 00:55:41;;;;;;;7.65;2.00;;;;;;;17.52;100.00;95105.31;5043060;28;20045;-80
2022/06/24 00:58:15;;;;;;;3.38;1.83;;;;;;;17.56;100.00;95112.31;5039781;28;20107;-80
2022/06/24 01:00:43;;;;;;;;;;;;;;;17.42;100.00;95101.91;5040305;28;20112;-80
2022/06/24 01:03:08;;;;;;;3.65;1.90;;;;;;;17.52;100.00;95110.63;5050341;28;20424;-79
2022/06/24 01:05:34;;;;;;;3.42;1.85;;;;;;;17.49;100.00;95107.50;5051530;28;20052;-79
2022/06/24 01:08:07;;;;;;;4.97;1.70;;;;;;;17.48;100.00;95108.63;5041882;28;20045;-79
2022/06/24 01:10:34;;;;;;;3.17;1.70;;;;;;;17.46;100.00;95113.47;5039676;28;20095;-79
2022/06/24 01:12:59;;;;;;;3.85;1.80;;;;;;;17.48;100.00;95113.94;5044721;28;20771;-79
2022/06/24 01:15:25;;;;;;;5.00;1.80;;;;;;;17.56;100.00;95120.28;5046530;28;20045;-79
2022/06/24 01:17:50;;;;;;;5.82;1.90;;;;;;;17.39;100.00;95112.44;5042794;28;20048;-80
2022/06/24 01:20:16;;;;;;;6.45;1.73;;;;;;;17.38;100.00;95116.94;5036413;28;20039;-80
2022/06/24 01:22:42;;;;;;;4.30;1.55;;;;;;;17.46;100.00;95124.09;5041575;28;20561;-80
2022/06/24 01:25:09;;;;;;;5.90;1.80;;;;;;;17.40;100.00;95125.41;5047192;28;20039;-80
2022/06/24 01:27:35;;;;;;;6.15;1.75;;;;;;;17.36;100.00;95119.16;5044340;28;20096;-80
2022/06/24 01:30:01;;;;;;;9.18;2.28;;;;;;;17.31;100.00;95116.69;5049792;28;20072;-80
2022/06/24 01:32:26;;;;;;;2.95;1.70;;;;;;;17.26;100.00;95119.53;5044752;28;20045;-80
2022/06/24 01:34:52;;;;;;;4.35;1.88;;;;;;;17.18;100.00;95113.16;5045252;28;20107;-79
2022/06/24 01:37:18;;;;;;;4.80;1.73;;;;;;;17.11;100.00;95113.66;5042858;28;20044;-79
2022/06/24 01:39:44;;;;;;;7.07;2.20;;;;;;;17.06;100.00;95111.19;5037388;28;20041;-80
2022/06/24 01:42:09;;;;;;;6.72;1.70;;;;;;;16.91;100.00;95109.06;5043008;28;20071;-79
2022/06/24 01:44:35;;;;;;;4.18;1.80;;;;;;;16.89;100.00;95111.25;5050347;28;20538;-80
2022/06/24 01:47:01;;;;;;;8.30;1.90;;;;;;;16.93;100.00;95112.19;5045278;28;20506;-80
2022/06/24 01:49:26;;;;;;;4.18;1.75;;;;;;;16.91;100.00;95109.06;5042787;28;20044;-80
2022/06/24 01:51:55;;;;;;;4.15;2.10;;;;;;;16.90;100.00;95123.47;5035713;28;20044;-80
2022/06/24 01:54:21;;;;;;;3.78;1.75;;;;;;;16.84;100.00;95119.38;5042462;28;20122;-80
2022/06/24 01:56:47;;;;;;;8.32;1.90;;;;;;;16.78;100.00;95122.22;5050383;28;20056;-80
2022/06/24 01:59:14;;;;;;;4.40;1.73;;;;;;;16.79;100.00;95123.78;5047053;28;20040;-80
2022/06/24 02:01:40;;;;;;;6.22;2.35;;;;;;;16.79;100.00;95113.16;5040209;28;20045;-81
2022/06/24 02:04:06;;;;;;;7.47;1.90;;;;;;;16.78;100.00;95122.22;5040923;28;20049;-80
2022/06/24 02:06:32;;;;;;;4.40;1.90;;;;;;;16.71;100.00;95111.31;5034719;28;20045;-80
2022/06/24 02:08:57;;;;;;;4.47;1.67;;;;;;;16.65;100.00;95106.47;5050267;28;20491;-80
2022/06/24 02:14:07;;;;;;;5.13;1.85;;;;;;;16.61;100.00;95106.34;5053873;28;20094;-81
2022/06/24 02:16:33;;;;;;;4.47;1.80;;;;;;;16.54;100.00;95106.06;5046924;28;20120;-81
2022/06/24 02:19:00;;;;;;;5.35;1.98;;;;;;;16.52;100.00;95102.91;5039850;28;20069;-81
2022/06/24 02:21:25;;;;;;;7.97;1.80;;;;;;;16.57;100.00;95108.84;5034308;28;20095;-80
2022/06/24 02:23:52;;;;;;;3.97;1.90;;;;;;;16.57;100.00;95105.41;5052935;28;20045;-81
2022/06/24 02:26:18;;;;;;;5.68;1.90;;;;;;;16.60;100.00;95112.75;5047833;28;20041;-79
2022/06/24 02:28:44;;;;;;;4.13;1.73;;;;;;;16.63;100.00;95104.13;5045730;28;20505;-79
2022/06/24 02:31:09;;;;;;;3.63;1.90;;;;;;;16.64;100.00;95105.69;5043956;28;20049;-80
2022/06/24 02:33:35;;;;;;;7.13;1.90;;;;;;;16.69;100.00;95113.47;5047653;28;20037;-80
2022/06/24 02:36:01;;;;;;;6.75;1.90;;;;;;;16.69;100.00;95110.06;5042156;28;20470;-80
2022/06/24 02:38:27;;;;;;;10.63;2.90;;;;;;;16.61;100.00;95109.78;5046155;28;20044;-80
2022/06/24 02:40:52;;;;;;;4.72;1.70;;;;;;;16.61;100.00;95109.00;5036359;28;20037;-80
2022/06/24 02:43:35;;;;;;;4.15;1.75;;;;;;;16.64;100.00;95113.66;5040600;28;20516;-79
2022/06/24 02:46:04;;;;;;;6.05;1.80;;;;;;;16.61;100.00;95111.66;5044811;28;20124;-79
2022/06/24 02:48:33;;;;;;;5.53;1.70;;;;;;;16.59;100.00;95097.91;5039701;28;20388;-80
2022/06/24 02:51:01;;;;;;;8.98;1.95;;;;;;;16.45;100.00;95098.88;5038192;28;20123;-79
2022/06/24 02:53:27;;;;;;;4.80;1.95;;;;;;;16.41;100.00;95087.31;5042776;28;20123;-79
2022/06/24 02:55:58;;;;;;;5.57;1.90;;;;;;;16.61;100.00;95090.41;5049066;28;20044;-79
2022/06/24 02:58:24;;;;;;;5.55;2.00;;;;;;;16.53;100.00;95088.53;5052775;28;20066;-80
2022/06/24 03:00:50;;;;;;;4.97;1.80;;;;;;;16.47;100.00;95095.13;5038296;28;20133;-79
2022/06/24 03:03:17;;;;;;;8.13;1.92;;;;;;;16.48;100.00;95091.38;5049521;28;20041;-80
2022/06/24 03:05:44;;;;;;;13.38;2.40;;;;;;;16.42;100.00;95088.88;5042165;28;20102;-80
2022/06/24 03:08:12;;;;;;;6.15;2.03;;;;;;;16.41;100.00;95082.00;5051453;28;20033;-80
2022/06/24 03:10:38;;;;;;;5.95;1.85;;;;;;;16.49;100.00;95093.69;5043080;28;20037;-80
2022/06/24 03:13:03;;;;;;;6.07;2.00;;;;;;;16.56;100.00;95087.91;5050315;28;20792;-79
2022/06/24 03:15:30;;;;;;;7.38;2.00;;;;;;;16.49;100.00;95098.25;5045692;28;20057;-79
2022/06/24 03:17:56;;;;;;;7.80;2.30;;;;;;;16.42;100.00;95091.53;5043059;28;20041;-80
2022/06/24 03:20:22;;;;;;;6.22;2.03;;;;;;;16.44;100.00;95086.69;5037706;28;20041;-79
2022/06/24 03:22:47;;;;;;;9.73;2.08;;;;;;;16.39;100.00;95083.41;5045024;28;20049;-79
2022/06/24 03:25:13;;;;;;;5.57;1.90;;;;;;;16.47;100.00;95081.84;5051185;28;20120;-79
2022/06/24 03:27:39;;;;;;;4.75;2.03;;;;;;;16.44;100.00;95086.69;5041472;28;20088;-79
2022/06/24 03:30:06;;;;;;;3.88;2.05;;;;;;;16.52;100.00;95092.28;5049149;28;20065;-79
2022/06/24 03:32:32;;;;;;;26.35;3.10;;;;;;;16.62;100.00;95086.63;5048527;28;20041;-79
2022/06/24 03:34:58;;;;;;;11.27;2.35;;;;;;;16.69;100.00;95094.88;5043477;28;20033;-79
2022/06/24 03:37:23;;;;;;;9.80;2.03;;;;;;;16.74;100.00;95089.41;5036396;28;20252;-79
2022/06/24 03:39:49;;;;;;;8.23;2.20;;;;;;;16.76;100.00;95078.47;5042760;28;20101;-79
2022/06/24 03:42:14;;;;;;;7.07;2.20;;;;;;;16.65;100.00;95086.00;5034702;28;20048;-79
2022/06/24 03:44:40;;;;;;;7.10;1.80;;;;;;;16.64;100.00;95095.06;5049457;28;20077;-79
2022/06/24 03:47:05;;;;;;;5.28;1.98;;;;;;;16.54;100.00;95090.13;5046848;28;20094;-78
2022/06/24 03:49:31;;;;;;;5.50;2.03;;;;;;;16.54;100.00;95092.78;5039827;28;20419;-79
2022/06/24 03:51:56;;;;;;;4.25;2.10;;;;;;;16.43;100.00;95090.47;5044986;28;20116;-79
2022/06/24 03:54:22;;;;;;;5.68;2.28;;;;;;;16.45;100.00;95082.94;5031775;28;20588;-78
2022/06/24 03:56:48;;;;;;;3.30;2.00;;;;;;;16.47;100.00;95082.63;5036433;28;20037;-78
2022/06/24 03:59:13;;;;;;;6.75;2.33;;;;;;;16.54;100.00;95076.84;5046271;28;20037;-78
2022/06/24 04:01:39;;;;;;;12.27;2.15;;;;;;;16.54;100.00;95074.19;5045697;28;20099;-78
2022/06/24 04:04:05;;;;;;;4.38;2.05;;;;;;;16.43;100.00;95079.84;5050293;28;20048;-78
2022/06/24 04:06:30;;;;;;;7.63;2.08;;;;;;;16.52;100.00;95077.16;5042872;28;20072;-78
2022/06/24 04:08:56;;;;;;;11.77;2.70;;;;;;;16.55;100.00;95081.03;5031333;28;20045;-79
2022/06/24 04:11:22;;;;;;;8.32;2.40;;;;;;;16.70;100.00;95088.47;5035672;28;20044;-79
2022/06/24 04:13:48;;;;;;;5.03;2.03;;;;;;;16.68;100.00;95088.03;5038743;28;20080;-79
2022/06/24 04:16:14;;;;;;;4.78;1.90;;;;;;;16.69;100.00;95091.47;5047268;28;20243;-79
2022/06/24 04:18:39;;;;;;;6.22;2.08;;;;;;;16.74;100.00;95089.41;5043295;28;20605;-79
2022/06/24 04:21:12;;;;;;;7.70;2.00;;;;;;;16.83;100.00;95085.94;5033475;28;20044;-79
2022/06/24 04:23:38;;;;;;;7.40;2.47;;;;;;;16.75;100.00;95085.66;5048115;28;20037;-79
2022/06/24 04:26:03;;;;;;;5.78;2.30;;;;;;;16.76;100.00;95081.13;5044184;28;20045;-79
2022/06/24 04:28:29;;;;;;;11.23;2.47;;;;;;;16.83;100.00;95081.41;5035724;28;20053;-79
2022/06/24 04:30:55;;;;;;;11.55;2.42;;;;;;;16.88;100.00;95085.78;5043642;28;20111;-79
2022/06/24 04:33:20;;;;;;;8.60;2.10;;;;;;;16.88;100.00;95083.13;5029800;28;20037;-79
2022/06/24 04:35:45;;;;;;;5.78;2.47;;;;;;;16.88;100.00;95099.06;5043705;28;20105;-79
2022/06/24 04:38:11;;;;;;;4.78;2.00;;;;;;;16.91;100.00;95103.75;5043433;28;20033;-79
2022/06/24 04:40:36;;;;;;;8.70;2.30;;;;;;;16.92;100.00;95105.31;5034231;28;20091;-79
2022/06/24 04:43:02;;;;;;;6.70;2.00;;;;;;;17.00;100.00;95088.56;5034368;28;20410;-79
2022/06/24 04:45:28;;;;;;;9.25;2.80;;;;;;;16.99;100.00;95094.97;5045149;28;20125;-79
2022/06/24 04:47:53;;;;;;;5.85;2.38;;;;;;;17.05;100.00;95099.00;5037653;28;20049;-79
2022/06/24 04:50:19;;;;;;;8.93;2.00;;;;;;;17.02;100.00;95099.63;5038261;28;20045;-79
2022/06/24 04:52:44;;;;;;;7.35;2.10;;;;;;;17.07;100.00;95107.44;5036560;28;20126;-79
2022/06/24 04:55:10;;;;;;;7.82;2.35;;;;;;;17.11;100.00;95108.34;5035170;28;20167;-79
2022/06/24 04:57:35;;;;;;;5.30;2.00;;;;;;;17.08;100.00;95103.69;5036669;28;20047;-79
2022/06/24 05:00:03;;;;;;;6.68;2.17;;;;;;;16.99;100.00;95105.59;5044792;28;20048;-79
2022/06/24 05:02:29;;;;;;;9.85;2.38;;;;;;;17.01;100.00;95108.72;5047881;28;20048;-79
2022/06/24 05:04:54;;;;;;;6.10;2.30;;;;;;;17.03;100.00;95109.16;5043094;28;20057;-79
2022/06/24 05:07:20;;;;;;;11.05;2.10;;;;;;;17.06;100.00;95100.53;5045071;28;20067;-80
2022/06/24 05:09:46;;;;;;;3.88;2.10;;;;;;;17.04;100.00;95108.06;5039816;28;20038;-80
2022/06/24 05:12:11;;;;;;;8.02;2.13;;;;;;;17.09;100.00;95118.50;5030680;28;20440;-79
2022/06/24 05:14:37;;;;;;;7.78;2.42;;;;;;;17.06;100.00;95108.53;5046590;28;20044;-79
2022/06/24 05:17:02;;;;;;;6.47;2.10;;;;;;;17.03;100.00;95106.50;5040451;28;20033;-79
2022/06/24 05:19:28;;;;;;;6.55;2.45;;;;;;;17.10;100.00;95111.34;5046777;28;20044;-79
2022/06/24 05:21:54;;;;;;;9.63;2.45;;;;;;;17.14;100.00;95113.03;5047604;28;20045;-79
2022/06/24 05:24:20;;;;;;;7.22;2.08;;;;;;;17.13;100.00;95114.13;5046571;28;20498;-79
2022/06/24 05:26:46;;;;;;;6.13;2.17;;;;;;;17.18;100.00;95104.41;5044770;28;20052;-79
2022/06/24 05:29:12;;;;;;;7.40;2.03;;;;;;;17.24;100.00;95095.13;5036287;28;20033;-79
2022/06/24 05:31:38;;;;;;;6.57;2.47;;;;;;;17.23;100.00;95098.91;5033990;28;20048;-80
2022/06/24 05:34:04;;;;;;;10.25;2.35;;;;;;;17.21;100.00;95101.09;5043987;28;20052;-80
2022/06/24 05:36:30;;;;;;;5.82;1.90;;;;;;;17.32;100.00;95102.28;5048524;28;20065;-80
2022/06/24 05:38:56;;;;;;;5.97;2.08;;;;;;;17.43;100.00;95097.38;5039436;28;20526;-77
2022/06/24 05:41:22;;;;;;;7.07;2.70;;;;;;;17.47;100.00;95099.06;5037934;28;20178;-77
2022/06/24 05:43:47;;;;;;;10.00;2.35;;;;;;;17.45;100.00;95106.56;5038929;28;20052;-77
2022/06/24 05:46:14;;;;;;;4.82;2.20;;;;;;;17.57;100.00;95107.75;5034740;28;20037;-78
2022/06/24 05:48:40;;;;;;;5.45;2.00;;;;;;;17.53;100.00;95096.22;5040571;28;20037;-79
2022/06/24 05:51:15;;;;;;;10.25;2.35;;;;;;;17.57;100.00;95089.13;5048930;28;20041;-79
2022/06/24 05:56:27;;;;;;;6.80;2.25;;;;;;;17.68;100.00;95092.97;5039892;28;20037;-80
2022/06/24 05:58:52;;;;;;;15.55;2.42;;;;;;;17.69;100.00;95094.53;5044270;28;20049;-81
2022/06/24 06:01:18;;;;;;;8.40;2.65;;;;;;;17.79;100.00;95096.81;5044393;28;20155;-79
2022/06/24 06:03:44;;;;;;;11.20;2.58;;;;;;;17.82;100.00;95093.50;5043120;28;20049;-80
2022/06/24 06:06:10;;;;;;;7.07;2.00;;;;;;;17.82;100.00;95088.16;5042400;28;20049;-79
2022/06/24 06:08:37;;;;;;;11.50;2.40;;;;;;;17.92;100.00;95086.25;5052054;28;20540;-80
2022/06/24 06:11:18;;;;;;;5.80;2.15;;;;;;;18.02;100.00;95083.19;5049513;28;20037;-81
2022/06/24 06:13:44;;;;;;;7.15;2.47;;;;;;;18.24;100.00;95082.03;5046359;28;20040;-80
2022/06/24 06:16:10;;;;;;;6.97;2.10;;;;;;;18.35;100.00;95093.06;5043532;28;20041;-79
2022/06/24 06:18:37;;;;;;;10.55;2.42;;;;;;;18.43;100.00;95092.19;5047988;28;20670;-78
2022/06/24 06:21:04;;;;;;;10.05;2.10;;;;;;;18.63;100.00;95089.78;5044138;28;20709;-78
2022/06/24 06:23:30;;;;;;;9.20;2.45;;;;;;;18.63;100.00;95097.78;5047097;28;20410;-81
2022/06/24 06:25:57;;;;;;;7.45;2.40;;;;;;;18.59;100.00;95091.53;5037865;28;20037;-79
2022/06/24 06:28:23;;;;;;;8.52;2.45;;;;;;;18.64;100.00;95091.34;5037223;28;20041;-79
2022/06/24 06:30:48;;;;;;;7.03;2.30;;;;;;;18.56;100.00;95092.22;5044996;28;20647;-78
2022/06/24 06:33:14;;;;;;;6.18;2.22;;;;;;;18.59;100.00;95084.34;5042720;28;20049;-78
2022/06/24 06:35:39;;;;;;;8.02;2.40;;;;;;;18.51;100.00;95085.97;5045454;28;20114;-79
2022/06/24 06:38:05;;;;;;;12.23;2.50;;;;;;;18.49;100.00;95098.88;5046697;28;20041;-78
2022/06/24 06:40:34;;;;;;;11.35;2.58;;;;;;;18.63;100.00;95100.44;5043592;28;20097;-78
2022/06/24 06:43:00;;;;;;;10.65;2.50;;;;;;;18.62;100.00;95094.34;5042402;28;20039;-79
2022/06/24 06:45:27;;;;;;;13.05;2.33;;;;;;;18.55;100.00;95079.97;5035689;28;20045;-82
2022/06/24 06:47:52;;;;;;;8.32;2.67;;;;;;;18.74;100.00;95092.81;5035179;28;20095;-81
2022/06/24 06:50:18;;;;;;;8.15;2.60;;;;;;;18.77;100.00;95092.91;5038049;28;20041;-81
2022/06/24 06:52:44;;;;;;;8.05;2.30;;;;;;;18.96;100.00;95088.94;5045003;28;20521;-82
2022/06/24 06:55:09;;;;;;;7.50;2.67;;;;;;;19.09;100.00;95093.16;5050258;28;20494;-83
2022/06/24 06:57:35;;;;;;;6.15;2.13;;;;;;;19.19;100.00;95092.75;5042275;28;20660;-82
2022/06/24 07:00:01;;;;;;;7.43;2.60;;;;;;;19.28;100.00;95078.47;5040395;28;20060;-84
2022/06/24 07:02:27;;;;;;;7.85;2.40;;;;;;;19.40;100.00;95075.81;5039200;28;20044;-83
2022/06/24 07:04:52;;;;;;;6.95;2.17;;;;;;;19.42;100.00;95070.91;5049195;28;20047;-83
2022/06/24 07:07:18;;;;;;;9.35;2.90;;;;;;;19.60;100.00;95062.66;5051238;28;20060;-85
2022/06/24 07:09:44;;;;;;;9.30;2.50;;;;;;;19.80;100.00;95061.72;5044725;28;20044;-83
2022/06/24 07:12:10;;;;;;;9.35;2.83;;;;;;;19.88;100.00;95058.13;5040258;28;20092;-83
2022/06/24 07:14:35;;;;;;;8.98;2.35;;;;;;;20.10;100.00;95058.72;5044664;28;20044;-83
2022/06/24 07:17:01;;;;;;;10.48;2.30;;;;;;;20.30;97.11;95050.81;5044533;28;20634;-83
2022/06/24 07:19:26;;;;;;;10.23;2.53;;;;;;;20.44;98.67;95043.16;5049085;28;20067;-83
2022/06/24 07:21:52;;;;;;;17.88;2.95;;;;;;;20.48;92.09;95046.69;5037720;28;20076;-82
2022/06/24 07:24:17;;;;;;;6.82;2.88;;;;;;;20.58;95.38;95051.53;5051241;28;20045;-83
2022/06/24 07:26:43;;;;;;;10.27;2.60;;;;;;;20.59;95.06;95055.75;5049579;28;20072;-86
2022/06/24 07:29:08;;;;;;;7.57;2.88;;;;;;;20.58;93.75;95066.78;5047085;28;20566;-81
2022/06/24 07:31:35;;;;;;;8.60;2.50;;;;;;;20.55;93.59;95057.56;5050606;28;20049;-83
2022/06/24 07:34:00;;;;;;;7.35;2.30;;;;;;;20.54;95.24;95061.38;5050657;28;20041;-82
2022/06/24 07:36:26;;;;;;;7.97;2.40;;;;;;;20.53;97.25;95062.47;5045211;28;20558;-81
2022/06/24 07:38:51;;;;;;;8.52;2.70;;;;;;;20.48;96.37;95054.72;5051544;28;20037;-82
2022/06/24 07:41:17;;;;;;;5.70;2.45;;;;;;;20.38;98.86;95057.91;5041857;28;20071;-81
2022/06/24 07:43:42;;;;;;;6.82;2.63;;;;;;;20.31;98.03;95069.16;5050094;28;20045;-82
2022/06/24 07:46:08;;;;;;;7.03;2.85;;;;;;;20.47;100.00;95058.50;5046829;28;20445;-81
2022/06/24 07:48:35;;;;;;;11.48;2.92;;;;;;;20.55;99.55;95054.88;5037406;28;20094;-80
2022/06/24 07:51:27;;;;;;;12.27;3.00;;;;;;;20.53;98.54;95054.47;5044416;28;20033;-80
2022/06/24 07:53:52;;;;;;;10.43;2.70;;;;;;;20.58;100.00;95056.88;5046004;28;20057;-80
2022/06/24 07:59:04;;;;;;;13.57;3.35;;;;;;;20.85;99.53;95051.81;5051517;28;20037;-81
2022/06/24 08:01:29;;;;;;;9.20;2.60;;;;;;;20.89;96.19;95049.22;5051601;28;20106;-80
2022/06/24 08:03:55;;;;;;;8.77;2.92;;;;;;;20.74;97.45;95046.19;5046150;28;20036;-80
2022/06/24 08:06:20;;;;;;;12.52;3.28;;;;;;;20.63;95.68;95044.38;5051168;28;20530;-80
2022/06/24 08:08:46;;;;;;;7.63;2.90;;;;;;;20.57;94.28;95050.00;5035959;28;20041;-80
2022/06/24 08:11:12;;;;;;;10.02;3.08;;;;;;;20.51;97.58;95054.00;5041342;28;20048;-80
2022/06/24 08:13:37;;;;;;;12.30;3.20;;;;;;;20.49;95.98;95048.25;5050634;28;20040;-80
2022/06/24 08:16:03;;;;;;;11.85;3.30;;;;;;;20.45;96.26;95046.63;5051534;28;20041;-80
2022/06/24 08:18:28;;;;;;;9.30;3.10;;;;;;;20.46;97.34;95042.81;5045839;28;20053;-80
2022/06/24 08:20:54;;;;;;;11.73;3.03;;;;;;;20.53;99.73;95038.44;5048614;28;20507;-80
2022/06/24 08:23:19;;;;;;;15.30;3.50;;;;;;;20.46;100.00;95032.91;5044315;28;20065;-80
2022/06/24 08:25:45;;;;;;;14.95;4.00;;;;;;;20.53;100.00;95038.44;5046543;28;20056;-80
2022/06/24 08:28:10;;;;;;;13.88;3.72;;;;;;;20.46;100.00;95032.91;5043879;28;21053;-80
2022/06/24 08:30:36;;;;;;;14.25;3.40;;;;;;;20.56;100.00;95031.63;5041186;28;20041;-79
2022/06/24 08:33:03;;;;;;;7.95;3.20;;;;;;;20.58;100.00;95030.13;5046245;28;20521;-80
2022/06/24 08:35:28;;;;;;;14.88;3.33;;;;;;;20.63;100.00;95031.00;5044134;28;20052;-78
2022/06/24 08:37:54;;;;;;;11.45;3.47;;;;;;;20.67;99.43;95023.88;5046774;28;20065;-78
2022/06/24 08:40:20;;;;;;;12.43;3.45;;;;;;;20.80;100.00;95019.97;5033724;28;20041;-81
2022/06/24 08:42:52;;;;;;;11.60;3.40;;;;;;;21.08;100.00;95013.75;5048348;28;20116;-80
2022/06/24 08:45:18;;;;;;;14.73;4.10;;;;;;;21.18;100.00;95013.19;5043915;28;20053;-79
2022/06/24 08:47:45;;;;;;;10.50;3.67;;;;;;;21.01;96.65;95011.66;5035024;28;20050;-79
2022/06/24 08:50:12;;;;;;;12.55;3.33;;;;;;;21.38;92.46;95015.91;5042551;28;20033;-79
2022/06/24 08:52:45;;;;;;;14.38;4.00;;;;;;;21.37;91.34;95014.34;5037883;28;20045;-79
2022/06/24 08:55:16;;;;;;;10.80;3.65;;;;;;;21.54;90.95;95013.97;5041580;28;20877;-80
2022/06/24 08:57:41;;;;;;;15.65;3.60;;;;;;;21.42;91.43;95011.38;5050978;28;20079;-79
2022/06/24 09:00:07;;;;;;;16.15;3.83;;;;;;;21.47;91.92;95013.78;5050445;28;20063;-79
2022/06/24 09:02:33;;;;;;;10.05;3.72;;;;;;;21.38;92.37;95013.22;5045404;28;20495;-80
2022/06/24 09:05:00;;;;;;;16.20;4.00;;;;;;;21.47;90.82;95016.47;5051326;28;20053;-80
2022/06/24 09:07:28;;;;;;;16.48;3.78;;;;;;;21.49;86.44;95016.88;5053395;28;20041;-80
2022/06/24 09:10:05;;;;;;;13.98;3.30;;;;;;;21.73;85.24;95009.75;5048950;28;20530;-80
2022/06/24 09:12:48;;;;;;;11.95;3.47;;;;;;;21.78;81.76;95001.44;5053028;28;20041;-80
2022/06/24 09:15:15;;;;;;;12.27;3.70;;;;;;;21.83;80.51;94998.44;5053581;28;20055;-79
2022/06/24 09:17:42;;;;;;;14.13;3.90;;;;;;;21.86;82.61;94999.66;5053717;28;20083;-78
2022/06/24 09:20:11;;;;;;;14.48;3.83;;;;;;;21.87;81.86;94988.56;5042277;28;20513;-80
2022/06/24 09:22:36;;;;;;;11.77;3.45;;;;;;;21.90;82.33;94993.22;5048190;28;21082;-78
2022/06/24 09:25:03;;;;;;;10.90;3.22;;;;;;;22.15;81.76;94976.81;5044987;28;20045;-79
2022/06/24 09:27:29;;;;;;;14.77;3.42;;;;;;;22.34;80.08;94984.06;5045389;28;20148;-78
2022/06/24 09:29:55;;;;;;;9.82;3.45;;;;;;;22.51;79.29;94982.78;5054324;28;20053;-79
2022/06/24 09:32:21;;;;;;;15.65;3.90;;;;;;;22.65;77.45;94971.53;5057876;28;20116;-79
2022/06/24 09:35:06;;;;;;;13.32;3.40;;;;;;;22.79;78.46;94973.66;5052846;28;20495;-79
2022/06/24 09:37:44;;;;;;;16.00;3.13;;;;;;;22.95;75.28;94974.25;5042372;28;20047;-77
2022/06/24 09:40:19;;;;;;;16.33;3.97;;;;;;;22.82;73.80;94970.25;5044534;28;20495;-79
2022/06/24 09:42:55;;;;;;;14.55;4.03;;;;;;;22.67;75.70;94964.66;5050869;28;20049;-77
2022/06/24 09:45:22;;;;;;;11.60;4.10;;;;;;;22.75;75.96;94962.84;5049117;28;20045;-79
2022/06/24 09:47:49;;;;;;;15.25;3.55;;;;;;;23.05;70.58;94953.31;5045883;28;20060;-78
2022/06/24 09:50:16;;;;;;;11.43;3.30;;;;;;;23.16;70.16;94954.25;5048171;28;20075;-81
2022/06/24 09:52:42;;;;;;;20.85;3.92;;;;;;;23.32;72.59;94954.84;5051298;28;20041;-80
2022/06/24 09:55:09;;;;;;;11.13;3.42;;;;;;;23.29;70.74;94950.19;5047480;28;20044;-82
2022/06/24 09:57:35;;;;;;;12.18;4.03;;;;;;;22.80;71.44;94940.31;5037854;28;20049;-83
2022/06/24 10:02:49;;;;;;;12.30;3.53;;;;;;;22.74;72.53;94941.75;5041493;28;20103;-81
2022/06/24 10:05:18;;;;;;;11.23;3.40;;;;;;;22.99;70.94;94931.38;5043980;28;20068;-81
2022/06/24 10:07:46;;;;;;;10.38;3.13;;;;;;;23.28;69.14;94931.78;5050467;28;21727;-80
2022/06/24 10:10:14;;;;;;;8.35;3.20;;;;;;;23.59;66.61;94925.22;5042539;28;20494;-81
2022/06/24 10:12:46;;;;;;;7.82;2.80;;;;;;;23.64;57.22;94914.13;5051075;28;20068;-79
2022/06/24 10:15:14;;;;;;;6.22;2.65;;;;;;;23.96;56.50;94927.13;5053002;28;20462;-79
2022/06/24 10:17:43;;;;;;;8.80;2.70;;;;;;;23.79;54.92;94922.34;5038497;28;20059;-79
2022/06/24 10:20:12;;;;;;;9.27;2.30;;;;;;;24.24;52.41;94915.13;5048226;28;20422;-80
2022/06/24 10:22:46;;;;;;;11.55;2.97;;;;;;;24.53;53.90;94909.94;5053808;28;20111;-80
2022/06/24 10:25:41;;;;;;;9.68;2.83;;;;;;;24.62;52.43;94896.94;5048708;28;20151;-80
2022/06/24 10:28:07;;;;;;;6.70;2.60;;;;;;;24.79;57.71;94894.75;5044178;28;20128;-80
2022/06/24 10:30:48;;;;;;;8.25;2.65;;;;;;;24.89;56.14;94888.66;5045088;28;20057;-80
2022/06/24 10:33:21;;;;;;;15.73;3.60;;;;;;;25.72;55.62;94878.97;5035854;28;20541;-79
2022/06/24 10:35:56;;;;;;;;;;;;;;;25.42;53.95;94882.72;5042729;28;20048;-80
2022/06/24 10:38:23;;;;;;;12.80;3.13;;;;;;;25.40;52.73;94889.66;5051832;28;20294;-81
2022/06/24 10:40:50;;;;;;;7.55;2.58;;;;;;;25.63;52.05;94883.16;5037851;28;20092;-80
2022/06/24 10:43:38;;;;;;;10.20;2.63;;;;;;;26.22;49.97;94877.47;5040132;28;20427;-80
2022/06/24 10:46:12;;;;;;;8.32;2.70;;;;;;;26.42;50.21;94873.22;5044957;28;20048;-80
2022/06/24 10:48:43;;;;;;;7.68;2.67;;;;;;;26.92;53.08;94868.91;5051776;28;20040;-79
2022/06/24 10:51:14;;;;;;;12.27;3.15;;;;;;;26.95;49.89;94868.09;5043206;28;20045;-81
2022/06/24 10:54:01;;;;;;;8.60;3.00;;;;;;;27.35;47.84;94868.75;5050346;28;20135;-81
2022/06/24 10:56:46;;;;;;;9.50;2.80;;;;;;;27.18;50.72;94866.88;5038875;28;20402;-81
2022/06/24 10:59:16;;;;;;;7.72;3.00;;;;;;;26.96;49.83;94864.25;5046194;28;20037;-78
2022/06/24 11:01:44;;;;;;;12.68;3.08;;;;;;;26.85;50.28;94874.31;5051033;28;20045;-78
2022/06/24 11:04:14;;;;;;;8.55;3.15;;;;;;;26.63;51.71;94871.66;5041136;28;20163;-80
2022/06/24 11:07:00;;;;;;;9.80;2.40;;;;;;;26.62;49.20;94867.41;5043675;28;20060;-80
2022/06/24 11:09:28;;;;;;;10.00;2.78;;;;;;;26.24;50.00;94859.00;5044920;28;20049;-80
2022/06/24 11:11:53;;;;;;;10.73;2.83;;;;;;;26.01;50.30;94852.06;5050023;28;20037;-81
2022/06/24 11:14:23;;;;;;;10.57;3.08;;;;;;;26.08;50.75;94852.06;5050794;28;20047;-81
2022/06/24 11:16:48;;;;;;;9.77;3.10;;;;;;;25.56;49.61;94840.84;5052292;28;20041;-80
2022/06/24 11:19:14;;;;;;;6.40;2.53;;;;;;;25.73;50.39;94837.41;5049520;28;20099;-80
2022/06/24 11:21:50;;;;;;;8.35;3.47;;;;;;;25.81;49.38;94832.00;5050360;28;20048;-79
2022/06/24 11:24:20;;;;;;;7.32;2.65;;;;;;;26.24;48.05;94843.56;5048463;28;20044;-79
2022/06/24 11:27:06;;;;;;;8.02;2.90;;;;;;;26.80;47.20;94835.78;5048191;28;20518;-79
2022/06/24 11:29:57;;;;;;;8.63;2.67;;;;;;;26.92;47.84;94841.91;5048882;28;20095;-78
2022/06/24 11:32:24;;;;;;;9.25;3.30;;;;;;;26.42;47.83;94832.78;5050789;28;20045;-77
2022/06/24 11:34:50;;;;;;;11.18;3.40;;;;;;;26.38;48.76;94836.63;5050422;28;20048;-83
2022/06/24 11:37:23;;;;;;;10.43;3.35;;;;;;;26.05;49.87;94836.66;5048325;28;20033;-84
2022/06/24 11:39:55;;;;;;;13.80;3.13;;;;;;;25.81;53.02;94829.31;5048939;28;20108;-84